Latest Coastal Weather Observations for Yeppoon

IDQ60701

Issued at 6:42 am EST Sunday 31 July 2016 (issued every 10 minutes, with the page automatically refreshed every 10 minutes)

About coastal observations | Map of coastal stations | Coastal observations for QLD | Marine services | Other Formats
Station Details ID: 033294 Name: YEPPOON THE ESPLANADE Lat: -23.14 Lon: 150.75 Height: 5.5 m
Data from the previous 72 hours. | See also: Recent months at Yeppoon
Date/Time
EST
Temp
°C
Wind Pressure Rain since
9am
mm
Weather Cloud Vis
km
Sea
Height
m
Swell
Dir  Spd
kts
Gust
kts
hPa Trend Height
m
Period
s
Dir
31/06:30am 11.5 W 7 9 1019.0 - 0.0 - - - - - - -
31/06:00am 12.6 W 5 7 1018.6 - 0.0 - - - - - - -
31/05:30am 13.1 W 6 7 1018.2 - 0.0 - - - - - - -
31/05:00am 13.0 W 5 7 1018.1 - 0.0 - - - - - - -
31/04:30am 13.4 W 5 6 1018.0 - 0.0 - - - - - - -
31/04:00am 13.6 W 5 7 1018.2 - 0.0 - - - - - - -
31/03:30am 13.3 W 7 8 1018.2 - 0.0 - - - - - - -
31/03:00am 13.1 W 5 7 1018.4 - 0.0 - - - - - - -
31/02:30am 13.1 WSW 5 6 1018.5 - 0.0 - - - - - - -
31/02:00am 13.2 W 5 7 1018.7 - 0.0 - - - - - - -
31/01:30am 13.7 WSW 5 6 1019.0 - 0.0 - - - - - - -
31/01:00am 13.4 W 5 7 1019.2 - 0.0 - - - - - - -
31/12:30am 13.5 W 6 7 1019.5 - 0.0 - - - - - - -
31/12:00am 13.5 W 7 8 1019.5 - 0.0 - - - - - - -
 
Date/Time
EST
Temp
°C
Wind Pressure Rain since
9am
mm
Weather Cloud Vis
km
Sea
Height
m
Swell
Dir  Spd
kts
Gust
kts
hPa Trend Height
m
Period
s
Dir
30/11:30pm 13.9 W 6 7 1019.7 - 0.0 - - - - - - -
30/11:00pm 14.0 W 6 7 1019.7 - 0.0 - - - - - - -
30/10:30pm 14.0 W 6 7 1020.0 - 0.0 - - - - - - -
30/10:00pm 13.9 W 7 7 1019.8 - 0.0 - - - - - - -
30/09:30pm 14.2 W 3 4 1019.6 - 0.0 - - - - - - -
30/09:00pm 14.8 WSW 2 4 1019.5 - 0.0 - - - - - - -
30/08:30pm 15.5 WSW 3 4 1019.4 - 0.0 - - - - - - -
30/08:00pm 18.3 NE 6 9 1019.3 - 0.0 - - - - - - -
30/07:30pm 18.9 E 5 9 1019.0 - 0.0 - - - - - - -
30/07:00pm 20.2 ENE 8 10 1018.7 - 0.0 - - - - - - -
30/06:30pm 20.2 ENE 10 11 1018.6 - 0.0 - - - - - - -
30/06:00pm 20.1 ENE 7 9 1018.3 - 0.0 - - - - - - -
30/05:30pm 20.3 ENE 8 10 1018.1 - 0.0 - - - - - - -
30/05:00pm 20.5 E 8 11 1017.9 - 0.0 - - - - - - -
30/04:30pm 20.9 E 8 10 1017.9 - 0.0 - - - - - - -
30/04:00pm 21.3 E 8 10 1017.8 - 0.0 - - - - - - -
30/03:30pm 21.6 E 9 11 1017.7 - 0.0 - - - - - - -
30/03:00pm 22.0 E 9 11 1017.6 - 0.0 - - - - - - -
30/02:30pm 22.4 E 10 12 1017.8 - 0.0 - - - - - - -
30/02:00pm 22.3 E 10 11 1017.8 - 0.0 - - - - - - -
30/01:30pm 22.7 E 10 11 1018.1 - 0.0 - - - - - - -
30/01:00pm 22.5 E 10 13 1018.4 - 0.0 - - - - - - -
30/12:30pm 22.5 E 11 14 1018.7 - 0.0 - - - - - - -
30/12:00pm 22.4 ESE 9 12 1019.5 - 0.0 - - - - - - -
30/11:30am 22.3 ESE 8 13 1020.0 - 0.0 - - - - - - -
30/11:00am 22.0 SE 8 11 1020.5 - 0.0 - - - - - - -
30/10:30am 21.8 SE 8 11 1020.7 - 0.0 - - - - - - -
30/10:00am 20.8 S 7 10 1020.6 - 0.0 - - - - - - -
30/09:30am 19.9 S 5 8 1020.9 - 0.0 - - - - - - -
30/09:00am 18.4 SSW 6 8 1020.9 - 0.0 - - - - - - -
30/08:30am 16.1 WNW 6 7 1020.7 - 0.0 - - - - - - -
30/08:00am 14.8 W 6 7 1020.4 - 0.0 - - - - - - -
30/07:30am 13.8 W 4 6 1020.3 - 0.0 - - - - - - -
30/07:00am 12.9 W 5 7 1019.9 - 0.0 - - - - - - -
30/06:30am 13.0 WNW 7 9 1019.6 - 0.0 - - - - - - -
30/06:00am 12.9 WNW 7 9 1019.3 - 0.0 - - - - - - -
30/05:30am 13.4 W 7 8 1019.0 - 0.0 - - - - - - -
30/05:00am 13.3 W 7 8 1018.9 - 0.0 - - - - - - -
30/04:30am 12.9 W 5 7 1018.8 - 0.0 - - - - - - -
30/04:00am 13.0 W 5 6 1019.0 - 0.0 - - - - - - -
30/03:30am 13.3 W 4 5 1019.0 - 0.0 - - - - - - -
30/03:00am 13.6 W 7 8 1019.1 - 0.0 - - - - - - -
30/02:30am 13.9 W 7 9 1019.2 - 0.0 - - - - - - -
30/02:00am 14.0 W 5 7 1019.4 - 0.0 - - - - - - -
30/01:30am 13.9 WSW 6 7 1019.8 - 0.0 - - - - - - -
30/01:00am 13.4 W 5 6 1020.3 - 0.0 - - - - - - -
30/12:30am 13.3 WSW 4 6 1020.5 - 0.0 - - - - - - -
30/12:00am 14.2 W 4 5 1020.5 - 0.0 - - - - - - -
 
Date/Time
EST
Temp
°C
Wind Pressure Rain since
9am
mm
Weather Cloud Vis
km
Sea
Height
m
Swell
Dir  Spd
kts
Gust
kts
hPa Trend Height
m
Period
s
Dir
29/11:30pm 13.7 W 6 8 1020.7 - 0.0 - - - - - - -
29/11:00pm 14.1 W 7 8 1020.8 - 0.0 - - - - - - -
29/10:30pm 14.5 W 7 8 1020.9 - 0.0 - - - - - - -
29/10:00pm 14.7 W 7 8 1021.1 - 0.0 - - - - - - -
29/09:30pm 14.5 W 3 5 1020.9 - 0.0 - - - - - - -
29/09:00pm 15.2 W 6 7 1020.7 - 0.0 - - - - - - -
29/08:30pm 16.0 W 5 6 1020.7 - 0.0 - - - - - - -
29/08:00pm 16.5 WSW 3 5 1020.4 - 0.0 - - - - - - -
29/07:30pm 18.8 SSE 3 7 1020.1 - 0.0 - - - - - - -
29/07:00pm 20.0 E 7 9 1019.9 - 0.0 - - - - - - -
29/06:30pm 20.1 E 10 12 1019.7 - 0.0 - - - - - - -
29/06:00pm 20.1 E 11 13 1019.6 - 0.0 - - - - - - -
29/05:30pm 20.2 E 9 13 1019.6 - 0.0 - - - - - - -
29/05:00pm 20.5 ESE 8 12 1019.4 - 0.0 - - - - - - -
29/04:30pm 20.9 ESE 8 12 1019.3 - 0.0 - - - - - - -
29/04:00pm 21.6 ESE 8 11 1019.2 - 0.0 - - - - - - -
29/03:30pm 21.4 ESE 8 13 1019.3 - 0.0 - - - - - - -
29/03:00pm 21.5 ESE 10 15 1019.3 - 0.0 - - - - - - -
29/02:30pm 21.5 ESE 9 14 1019.3 - 0.0 - - - - - - -
29/02:00pm 21.6 ESE 10 15 1019.5 - 0.0 - - - - - - -
29/01:30pm 21.7 ESE 9 12 1019.6 - 0.0 - - - - - - -
29/01:00pm 21.3 ESE 10 14 1020.0 - 0.0 - - - - - - -
29/12:30pm 21.4 ESE 10 13 1020.4 - 0.0 - - - - - - -
29/12:00pm 21.1 ESE 10 15 1020.9 - 0.0 - - - - - - -
29/11:30am 21.2 SE 10 13 1021.5 - 0.0 - - - - - - -
29/11:00am 20.4 SE 11 15 1022.2 - 0.0 - - - - - - -
29/10:30am 20.4 SSE 10 15 1022.3 - 0.0 - - - - - - -
29/10:00am 20.2 SSE 7 11 1022.6 - 0.0 - - - - - - -
29/09:30am 18.4 S 7 11 1022.9 - 0.0 - - - - - - -
29/09:00am 18.0 S 8 11 1022.8 - 0.0 - - - - - - -
29/08:30am 16.2 WSW 5 7 1022.7 - 0.0 - - - - - - -
29/08:00am 13.6 W 6 8 1022.5 - 0.0 - - - - - - -
29/07:30am 12.0 W 5 7 1022.4 - 0.0 - - - - - - -
29/07:00am 10.8 W 5 9 1022.2 - 0.0 - - - - - - -
29/06:30am 10.6 W 6 9 1021.7 - 0.0 - - - - - - -
29/06:00am 10.1 WNW 8 9 1021.3 - 0.0 - - - - - - -
29/05:30am 10.9 W 5 7 1021.3 - 0.0 - - - - - - -
29/05:00am 11.4 WNW 7 9 1020.8 - 0.0 - - - - - - -
29/04:30am 11.6 WNW 7 9 1020.7 - 0.0 - - - - - - -
29/04:00am 12.2 W 7 9 1020.6 - 0.0 - - - - - - -
29/03:30am 12.3 W 7 9 1020.6 - 0.0 - - - - - - -
29/03:00am 12.2 W 5 6 1020.7 - 0.0 - - - - - - -
29/02:30am 12.2 W 5 6 1020.8 - 0.0 - - - - - - -
29/02:00am 12.3 W 7 8 1021.1 - 0.0 - - - - - - -
29/01:30am 12.3 W 7 8 1021.2 - 0.0 - - - - - - -
29/01:00am 12.4 W 6 8 1021.5 - 0.0 - - - - - - -
29/12:30am 12.9 WSW 6 8 1021.8 - 0.0 - - - - - - -
29/12:00am 12.7 WSW 6 7 1022.1 - 0.0 - - - - - - -
 
Date/Time
EST
Temp
°C
Wind Pressure Rain since
9am
mm
Weather Cloud Vis
km
Sea
Height
m
Swell
Dir  Spd
kts
Gust
kts
hPa Trend Height
m
Period
s
Dir
28/11:30pm 12.6 W 6 8 1022.1 - 0.0 - - - - - - -
28/11:00pm 12.5 W 6 7 1022.2 - 0.0 - - - - - - -
28/10:30pm 12.3 W 7 9 1022.4 - 0.0 - - - - - - -
28/10:00pm 12.5 WNW 8 9 1022.6 - 0.0 - - - - - - -
28/09:30pm 12.8 WNW 7 8 1022.7 - 0.0 - - - - - - -
28/09:00pm 13.3 W 6 7 1022.7 - 0.0 - - - - - - -
28/08:30pm 13.8 SSW 5 6 1022.6 - 0.0 - - - - - - -
28/08:00pm 14.3 S 4 6 1022.5 - 0.0 - - - - - - -
28/07:30pm 15.3 S 4 6 1022.3 - 0.0 - - - - - - -
28/07:00pm 17.8 SE 6 12 1022.2 - 0.0 - - - - - - -
28/06:30pm 18.8 E 9 12 1022.0 - 0.0 - - - - - - -
28/06:00pm 18.5 ESE 7 9 1021.8 - 0.0 - - - - - - -
28/05:30pm 18.6 E 8 10 1021.4 - 0.0 - - - - - - -
28/05:00pm 18.8 E 8 11 1021.1 - 0.0 - - - - - - -
28/04:30pm 19.0 E 9 12 1020.9 - 0.0 - - - - - - -
28/04:00pm 19.3 E 8 10 1020.5 - 0.0 - - - - - - -
28/03:30pm 19.9 E 8 10 1020.4 - 0.0 - - - - - - -
28/03:00pm 19.9 E 10 13 1020.5 - 0.0 - - - - - - -
28/02:30pm 19.5 E 10 13 1020.8 - 0.0 - - - - - - -
28/02:00pm 19.5 E 10 13 1021.1 - 0.0 - - - - - - -
28/01:30pm 19.5 E 11 14 1021.3 - 0.0 - - - - - - -
28/01:00pm 19.5 ESE 11 16 1021.7 - 0.0 - - - - - - -
28/12:30pm 19.3 SE 9 15 1022.2 - 0.0 - - - - - - -
28/12:00pm 19.0 SE 10 15 1022.7 - 0.0 - - - - - - -
28/11:30am 19.3 SE 8 13 1023.1 - 0.0 - - - - - - -
28/11:00am 18.8 SSE 11 17 1023.3 - 0.0 - - - - - - -
28/10:30am 18.7 SSE 9 14 1023.6 - 0.0 - - - - - - -
28/10:00am 18.3 SE 11 17 1024.0 - 0.0 - - - - - - -
28/09:30am 17.6 S 7 11 1024.0 - 0.0 - - - - - - -
28/09:00am 16.5 S 7 11 1023.9 - 0.0 - - - - - - -
28/08:30am 15.7 S 7 11 1023.9 - 0.0 - - - - - - -
28/08:00am 14.5 SW 4 5 1023.8 - 0.0 - - - - - - -
28/07:30am 11.9 WSW 6 7 1023.4 - 0.0 - - - - - - -
28/07:00am 10.3 W 7 9 1022.9 - 0.0 - - - - - - -

Other Formats:

Comma delimited format used in spreadsheet applications
http://www.bom.gov.au/fwo/IDQ60701/IDQ60701.94373.axf

JavaScript Object Notation format (JSON) in row-major order
http://www.bom.gov.au/fwo/IDQ60701/IDQ60701.94373.json